sensor_id;sensor_type;location;lat;lon;timestamp;temperature;humidity
11122;DHT22;5615;49.304;10.576;2023-07-24T00:02:17;17.00;99.90
11122;DHT22;5615;49.304;10.576;2023-07-24T00:04:43;16.90;99.90
11122;DHT22;5615;49.304;10.576;2023-07-24T00:07:11;16.70;99.90
11122;DHT22;5615;49.304;10.576;2023-07-24T00:09:38;16.70;99.90
11122;DHT22;5615;49.304;10.576;2023-07-24T00:12:06;16.70;99.90
11122;DHT22;5615;49.304;10.576;2023-07-24T00:14:32;16.70;99.90
11122;DHT22;5615;49.304;10.576;2023-07-24T00:16:59;16.70;99.90
11122;DHT22;5615;49.304;10.576;2023-07-24T00:19:26;16.50;99.90
11122;DHT22;5615;49.304;10.576;2023-07-24T00:21:52;16.20;99.90
11122;DHT22;5615;49.304;10.576;2023-07-24T00:24:20;15.80;99.90
11122;DHT22;5615;49.304;10.576;2023-07-24T00:26:47;15.70;99.90
11122;DHT22;5615;49.304;10.576;2023-07-24T00:29:13;15.50;99.90
11122;DHT22;5615;49.304;10.576;2023-07-24T00:31:40;15.40;99.90
11122;DHT22;5615;49.304;10.576;2023-07-24T00:34:07;15.20;99.90
11122;DHT22;5615;49.304;10.576;2023-07-24T00:36:33;15.10;99.90
11122;DHT22;5615;49.304;10.576;2023-07-24T00:39:00;15.10;99.90
11122;DHT22;5615;49.304;10.576;2023-07-24T00:41:28;15.00;99.90
11122;DHT22;5615;49.304;10.576;2023-07-24T00:43:54;15.10;99.90
11122;DHT22;5615;49.304;10.576;2023-07-24T00:46:21;15.20;99.90
11122;DHT22;5615;49.304;10.576;2023-07-24T00:48:48;15.30;99.90
11122;DHT22;5615;49.304;10.576;2023-07-24T00:51:15;15.30;99.90
11122;DHT22;5615;49.304;10.576;2023-07-24T00:53:42;15.30;99.90
11122;DHT22;5615;49.304;10.576;2023-07-24T00:56:09;15.40;99.90
11122;DHT22;5615;49.304;10.576;2023-07-24T00:58:38;15.30;99.90
11122;DHT22;5615;49.304;10.576;2023-07-24T01:01:05;15.10;99.90
11122;DHT22;5615;49.304;10.576;2023-07-24T01:03:33;15.20;99.90
11122;DHT22;5615;49.304;10.576;2023-07-24T01:06:01;15.10;99.90
11122;DHT22;5615;49.304;10.576;2023-07-24T01:08:28;15.20;99.90
11122;DHT22;5615;49.304;10.576;2023-07-24T01:10:57;15.20;99.90
11122;DHT22;5615;49.304;10.576;2023-07-24T01:13:31;15.30;99.90
11122;DHT22;5615;49.304;10.576;2023-07-24T01:16:04;15.40;99.90
11122;DHT22;5615;49.304;10.576;2023-07-24T01:18:33;15.50;99.90
11122;DHT22;5615;49.304;10.576;2023-07-24T01:21:04;15.60;99.90
11122;DHT22;5615;49.304;10.576;2023-07-24T01:23:41;15.60;99.90
11122;DHT22;5615;49.304;10.576;2023-07-24T01:26:12;15.70;99.90
11122;DHT22;5615;49.304;10.576;2023-07-24T01:28:39;15.60;99.90
11122;DHT22;5615;49.304;10.576;2023-07-24T01:31:05;15.60;99.90
11122;DHT22;5615;49.304;10.576;2023-07-24T01:33:32;15.60;99.90
11122;DHT22;5615;49.304;10.576;2023-07-24T01:36:02;15.60;99.90
11122;DHT22;5615;49.304;10.576;2023-07-24T01:38:31;15.60;99.90
11122;DHT22;5615;49.304;10.576;2023-07-24T01:40:59;15.60;99.90
11122;DHT22;5615;49.304;10.576;2023-07-24T01:43:28;15.60;99.90
11122;DHT22;5615;49.304;10.576;2023-07-24T01:45:55;15.50;99.90
11122;DHT22;5615;49.304;10.576;2023-07-24T01:48:22;15.50;99.90
11122;DHT22;5615;49.304;10.576;2023-07-24T01:50:49;15.50;99.90
11122;DHT22;5615;49.304;10.576;2023-07-24T01:53:15;15.60;99.90
11122;DHT22;5615;49.304;10.576;2023-07-24T01:55:42;15.50;99.90
11122;DHT22;5615;49.304;10.576;2023-07-24T01:58:08;15.50;99.90
11122;DHT22;5615;49.304;10.576;2023-07-24T02:00:36;15.60;99.90
11122;DHT22;5615;49.304;10.576;2023-07-24T02:03:03;15.70;99.90
11122;DHT22;5615;49.304;10.576;2023-07-24T02:05:30;15.70;99.90
11122;DHT22;5615;49.304;10.576;2023-07-24T02:07:57;15.60;99.90
11122;DHT22;5615;49.304;10.576;2023-07-24T02:10:24;15.60;99.90
11122;DHT22;5615;49.304;10.576;2023-07-24T02:12:50;15.60;99.90
11122;DHT22;5615;49.304;10.576;2023-07-24T02:15:17;15.60;99.90
11122;DHT22;5615;49.304;10.576;2023-07-24T02:17:45;15.70;99.90
11122;DHT22;5615;49.304;10.576;2023-07-24T02:20:12;15.60;99.90
11122;DHT22;5615;49.304;10.576;2023-07-24T02:22:38;15.50;99.90
11122;DHT22;5615;49.304;10.576;2023-07-24T02:25:06;15.40;99.90
11122;DHT22;5615;49.304;10.576;2023-07-24T02:27:32;15.50;99.90
11122;DHT22;5615;49.304;10.576;2023-07-24T02:30:00;15.50;99.90
11122;DHT22;5615;49.304;10.576;2023-07-24T02:32:26;15.50;99.90
11122;DHT22;5615;49.304;10.576;2023-07-24T02:34:55;15.50;99.90
11122;DHT22;5615;49.304;10.576;2023-07-24T02:37:22;15.50;99.90
11122;DHT22;5615;49.304;10.576;2023-07-24T02:39:48;15.60;99.90
11122;DHT22;5615;49.304;10.576;2023-07-24T02:42:15;15.60;99.90
11122;DHT22;5615;49.304;10.576;2023-07-24T02:44:41;15.60;99.90
11122;DHT22;5615;49.304;10.576;2023-07-24T02:47:08;15.60;99.90
11122;DHT22;5615;49.304;10.576;2023-07-24T02:49:35;15.70;99.90
11122;DHT22;5615;49.304;10.576;2023-07-24T02:52:03;15.70;99.90
11122;DHT22;5615;49.304;10.576;2023-07-24T02:54:30;15.60;99.90
11122;DHT22;5615;49.304;10.576;2023-07-24T02:56:56;15.70;99.90
11122;DHT22;5615;49.304;10.576;2023-07-24T02:59:23;15.70;99.90
11122;DHT22;5615;49.304;10.576;2023-07-24T03:01:50;15.70;99.90
11122;DHT22;5615;49.304;10.576;2023-07-24T03:04:16;15.70;99.90
11122;DHT22;5615;49.304;10.576;2023-07-24T03:06:43;15.70;99.90
11122;DHT22;5615;49.304;10.576;2023-07-24T03:09:11;15.80;99.90
11122;DHT22;5615;49.304;10.576;2023-07-24T03:11:37;15.80;99.90
11122;DHT22;5615;49.304;10.576;2023-07-24T03:14:04;15.70;99.90
11122;DHT22;5615;49.304;10.576;2023-07-24T03:16:31;15.80;99.90
11122;DHT22;5615;49.304;10.576;2023-07-24T03:18:57;15.70;99.90
11122;DHT22;5615;49.304;10.576;2023-07-24T03:21:24;15.70;99.90
11122;DHT22;5615;49.304;10.576;2023-07-24T03:23:51;15.70;99.90
11122;DHT22;5615;49.304;10.576;2023-07-24T03:26:19;15.70;99.90
11122;DHT22;5615;49.304;10.576;2023-07-24T03:28:45;15.70;99.90
11122;DHT22;5615;49.304;10.576;2023-07-24T03:31:12;15.70;99.90
11122;DHT22;5615;49.304;10.576;2023-07-24T03:33:38;15.60;99.90
11122;DHT22;5615;49.304;10.576;2023-07-24T03:36:05;15.60;99.90
11122;DHT22;5615;49.304;10.576;2023-07-24T03:38:32;15.60;99.90
11122;DHT22;5615;49.304;10.576;2023-07-24T03:40:59;15.60;99.90
11122;DHT22;5615;49.304;10.576;2023-07-24T03:43:27;15.60;99.90
11122;DHT22;5615;49.304;10.576;2023-07-24T03:45:54;15.60;99.90
11122;DHT22;5615;49.304;10.576;2023-07-24T03:48:20;15.50;99.90
11122;DHT22;5615;49.304;10.576;2023-07-24T03:50:49;15.50;99.90
11122;DHT22;5615;49.304;10.576;2023-07-24T03:53:16;15.40;99.90
11122;DHT22;5615;49.304;10.576;2023-07-24T03:55:42;15.40;99.90
11122;DHT22;5615;49.304;10.576;2023-07-24T03:58:09;15.50;99.90
11122;DHT22;5615;49.304;10.576;2023-07-24T04:00:37;15.40;99.90
11122;DHT22;5615;49.304;10.576;2023-07-24T04:03:04;15.40;99.90
11122;DHT22;5615;49.304;10.576;2023-07-24T04:05:30;15.40;99.90
11122;DHT22;5615;49.304;10.576;2023-07-24T04:07:57;15.40;99.90
11122;DHT22;5615;49.304;10.576;2023-07-24T04:10:24;15.40;99.90
11122;DHT22;5615;49.304;10.576;2023-07-24T04:12:51;15.40;99.90
11122;DHT22;5615;49.304;10.576;2023-07-24T04:15:18;15.40;99.90
11122;DHT22;5615;49.304;10.576;2023-07-24T04:17:46;15.40;99.90
11122;DHT22;5615;49.304;10.576;2023-07-24T04:20:12;15.50;99.90
11122;DHT22;5615;49.304;10.576;2023-07-24T04:22:39;15.50;99.90
11122;DHT22;5615;49.304;10.576;2023-07-24T04:25:06;15.60;99.90
11122;DHT22;5615;49.304;10.576;2023-07-24T04:27:33;15.70;99.90
11122;DHT22;5615;49.304;10.576;2023-07-24T04:29:59;15.70;99.90
11122;DHT22;5615;49.304;10.576;2023-07-24T04:32:26;15.80;99.90
11122;DHT22;5615;49.304;10.576;2023-07-24T04:34:54;15.80;99.90
11122;DHT22;5615;49.304;10.576;2023-07-24T04:37:21;15.90;99.90
11122;DHT22;5615;49.304;10.576;2023-07-24T04:39:47;16.00;99.90
11122;DHT22;5615;49.304;10.576;2023-07-24T04:42:14;16.10;99.90
11122;DHT22;5615;49.304;10.576;2023-07-24T04:44:41;16.10;99.90
11122;DHT22;5615;49.304;10.576;2023-07-24T04:47:07;16.20;99.90
11122;DHT22;5615;49.304;10.576;2023-07-24T04:49:34;16.20;99.90
11122;DHT22;5615;49.304;10.576;2023-07-24T04:52:02;16.20;99.90
11122;DHT22;5615;49.304;10.576;2023-07-24T04:54:29;16.20;99.90
11122;DHT22;5615;49.304;10.576;2023-07-24T04:56:56;16.20;99.90
11122;DHT22;5615;49.304;10.576;2023-07-24T04:59:22;16.30;99.90
11122;DHT22;5615;49.304;10.576;2023-07-24T05:01:49;16.40;99.90
11122;DHT22;5615;49.304;10.576;2023-07-24T05:04:16;16.50;99.90
11122;DHT22;5615;49.304;10.576;2023-07-24T05:06:42;16.50;99.90
11122;DHT22;5615;49.304;10.576;2023-07-24T05:09:10;16.60;99.90
11122;DHT22;5615;49.304;10.576;2023-07-24T05:11:37;16.70;99.90
11122;DHT22;5615;49.304;10.576;2023-07-24T05:14:03;16.80;99.90
11122;DHT22;5615;49.304;10.576;2023-07-24T05:16:30;16.90;99.90
11122;DHT22;5615;49.304;10.576;2023-07-24T05:18:57;16.90;99.90
11122;DHT22;5615;49.304;10.576;2023-07-24T05:21:24;17.00;99.90
11122;DHT22;5615;49.304;10.576;2023-07-24T05:23:50;17.10;99.90
11122;DHT22;5615;49.304;10.576;2023-07-24T05:26:18;17.30;99.90
11122;DHT22;5615;49.304;10.576;2023-07-24T05:28:47;17.40;99.90
11122;DHT22;5615;49.304;10.576;2023-07-24T05:31:14;17.60;99.90
11122;DHT22;5615;49.304;10.576;2023-07-24T05:33:40;17.70;99.90
11122;DHT22;5615;49.304;10.576;2023-07-24T05:36:07;17.90;99.90
11122;DHT22;5615;49.304;10.576;2023-07-24T05:38:34;18.00;99.90
11122;DHT22;5615;49.304;10.576;2023-07-24T05:41:01;18.10;99.90
11122;DHT22;5615;49.304;10.576;2023-07-24T05:43:30;18.20;99.90
11122;DHT22;5615;49.304;10.576;2023-07-24T05:45:58;18.20;99.90
11122;DHT22;5615;49.304;10.576;2023-07-24T05:48:25;18.20;99.90
11122;DHT22;5615;49.304;10.576;2023-07-24T05:50:51;18.20;99.90
11122;DHT22;5615;49.304;10.576;2023-07-24T05:53:18;18.30;99.90
11122;DHT22;5615;49.304;10.576;2023-07-24T05:55:45;18.40;99.90
11122;DHT22;5615;49.304;10.576;2023-07-24T05:58:11;18.50;99.90
11122;DHT22;5615;49.304;10.576;2023-07-24T06:00:39;18.60;99.90
11122;DHT22;5615;49.304;10.576;2023-07-24T06:03:06;18.60;99.90
11122;DHT22;5615;49.304;10.576;2023-07-24T06:05:32;18.60;99.90
11122;DHT22;5615;49.304;10.576;2023-07-24T06:07:59;18.70;99.90
11122;DHT22;5615;49.304;10.576;2023-07-24T06:10:26;18.60;99.90
11122;DHT22;5615;49.304;10.576;2023-07-24T06:12:52;18.60;99.90
11122;DHT22;5615;49.304;10.576;2023-07-24T06:15:19;18.60;99.90
11122;DHT22;5615;49.304;10.576;2023-07-24T06:17:47;18.70;99.90
11122;DHT22;5615;49.304;10.576;2023-07-24T06:20:13;18.80;99.90
11122;DHT22;5615;49.304;10.576;2023-07-24T06:22:40;19.00;99.90
11122;DHT22;5615;49.304;10.576;2023-07-24T06:25:07;19.20;99.90
11122;DHT22;5615;49.304;10.576;2023-07-24T06:27:34;19.40;99.90
11122;DHT22;5615;49.304;10.576;2023-07-24T06:30:01;19.50;99.90
11122;DHT22;5615;49.304;10.576;2023-07-24T06:32:28;19.60;99.90
11122;DHT22;5615;49.304;10.576;2023-07-24T06:34:55;19.90;99.90
11122;DHT22;5615;49.304;10.576;2023-07-24T06:37:22;20.20;99.90
11122;DHT22;5615;49.304;10.576;2023-07-24T06:39:49;20.50;99.90
11122;DHT22;5615;49.304;10.576;2023-07-24T06:42:15;20.80;99.90
11122;DHT22;5615;49.304;10.576;2023-07-24T06:44:42;21.00;99.90
11122;DHT22;5615;49.304;10.576;2023-07-24T06:47:08;21.10;99.90
11122;DHT22;5615;49.304;10.576;2023-07-24T06:49:35;21.30;99.90
11122;DHT22;5615;49.304;10.576;2023-07-24T06:52:04;21.40;99.90
11122;DHT22;5615;49.304;10.576;2023-07-24T06:54:30;21.60;99.90
11122;DHT22;5615;49.304;10.576;2023-07-24T06:56:57;21.70;99.90
11122;DHT22;5615;49.304;10.576;2023-07-24T06:59:24;21.80;99.90
11122;DHT22;5615;49.304;10.576;2023-07-24T07:01:50;21.70;99.90
11122;DHT22;5615;49.304;10.576;2023-07-24T07:04:17;21.80;99.90
11122;DHT22;5615;49.304;10.576;2023-07-24T07:06:43;21.70;99.90
11122;DHT22;5615;49.304;10.576;2023-07-24T07:09:11;21.50;99.90
11122;DHT22;5615;49.304;10.576;2023-07-24T07:11:38;21.40;99.90
11122;DHT22;5615;49.304;10.576;2023-07-24T07:14:05;21.20;99.90
11122;DHT22;5615;49.304;10.576;2023-07-24T07:16:34;21.20;99.90
11122;DHT22;5615;49.304;10.576;2023-07-24T07:19:00;21.10;99.90
11122;DHT22;5615;49.304;10.576;2023-07-24T07:21:27;20.90;99.90
11122;DHT22;5615;49.304;10.576;2023-07-24T07:23:54;20.80;99.90
11122;DHT22;5615;49.304;10.576;2023-07-24T07:26:23;20.70;99.90
11122;DHT22;5615;49.304;10.576;2023-07-24T07:28:50;20.70;99.90
11122;DHT22;5615;49.304;10.576;2023-07-24T07:31:17;20.80;99.90
11122;DHT22;5615;49.304;10.576;2023-07-24T07:33:43;21.00;99.90
11122;DHT22;5615;49.304;10.576;2023-07-24T07:36:10;20.70;99.90
11122;DHT22;5615;49.304;10.576;2023-07-24T07:38:37;20.70;99.90
11122;DHT22;5615;49.304;10.576;2023-07-24T07:41:05;20.70;99.90
11122;DHT22;5615;49.304;10.576;2023-07-24T07:43:33;20.70;99.90
11122;DHT22;5615;49.304;10.576;2023-07-24T07:46:01;20.70;99.90
11122;DHT22;5615;49.304;10.576;2023-07-24T07:48:28;20.70;99.90
11122;DHT22;5615;49.304;10.576;2023-07-24T07:50:55;20.90;99.90
11122;DHT22;5615;49.304;10.576;2023-07-24T07:53:21;21.00;99.90
11122;DHT22;5615;49.304;10.576;2023-07-24T07:55:55;21.20;99.90
11122;DHT22;5615;49.304;10.576;2023-07-24T07:58:22;21.40;99.90
11122;DHT22;5615;49.304;10.576;2023-07-24T08:00:50;21.60;99.90
11122;DHT22;5615;49.304;10.576;2023-07-24T08:03:17;21.60;99.90
11122;DHT22;5615;49.304;10.576;2023-07-24T08:05:43;21.90;99.90
11122;DHT22;5615;49.304;10.576;2023-07-24T08:08:10;22.10;99.90
11122;DHT22;5615;49.304;10.576;2023-07-24T08:10:37;22.10;99.90
11122;DHT22;5615;49.304;10.576;2023-07-24T08:13:03;22.10;99.90
11122;DHT22;5615;49.304;10.576;2023-07-24T08:15:34;22.20;99.90
11122;DHT22;5615;49.304;10.576;2023-07-24T08:18:02;22.50;99.90
11122;DHT22;5615;49.304;10.576;2023-07-24T08:20:29;22.30;99.90
11122;DHT22;5615;49.304;10.576;2023-07-24T08:22:56;22.30;99.90
11122;DHT22;5615;49.304;10.576;2023-07-24T08:25:22;22.30;99.90
11122;DHT22;5615;49.304;10.576;2023-07-24T08:27:49;22.70;99.90
11122;DHT22;5615;49.304;10.576;2023-07-24T08:30:15;22.90;99.90
11122;DHT22;5615;49.304;10.576;2023-07-24T08:32:42;22.70;99.90
11122;DHT22;5615;49.304;10.576;2023-07-24T08:35:10;22.80;99.90
11122;DHT22;5615;49.304;10.576;2023-07-24T08:37:36;23.10;99.90
11122;DHT22;5615;49.304;10.576;2023-07-24T08:40:04;23.40;99.90
11122;DHT22;5615;49.304;10.576;2023-07-24T08:42:31;23.40;99.90
11122;DHT22;5615;49.304;10.576;2023-07-24T08:44:58;23.50;99.90
11122;DHT22;5615;49.304;10.576;2023-07-24T08:47:25;23.60;99.90
11122;DHT22;5615;49.304;10.576;2023-07-24T08:49:54;23.80;99.90
11122;DHT22;5615;49.304;10.576;2023-07-24T08:52:22;23.80;99.90
11122;DHT22;5615;49.304;10.576;2023-07-24T08:54:49;23.60;99.90
11122;DHT22;5615;49.304;10.576;2023-07-24T08:57:16;23.80;99.90
11122;DHT22;5615;49.304;10.576;2023-07-24T08:59:43;24.20;99.90
11122;DHT22;5615;49.304;10.576;2023-07-24T09:02:10;24.20;99.90
11122;DHT22;5615;49.304;10.576;2023-07-24T09:04:36;24.60;99.90
11122;DHT22;5615;49.304;10.576;2023-07-24T09:07:04;24.60;99.90
11122;DHT22;5615;49.304;10.576;2023-07-24T09:09:32;24.60;99.90
11122;DHT22;5615;49.304;10.576;2023-07-24T09:11:58;25.00;99.90
11122;DHT22;5615;49.304;10.576;2023-07-24T09:14:26;25.30;99.90
11122;DHT22;5615;49.304;10.576;2023-07-24T09:17:04;25.20;99.90
11122;DHT22;5615;49.304;10.576;2023-07-24T09:19:31;25.30;99.90
11122;DHT22;5615;49.304;10.576;2023-07-24T09:22:07;25.50;99.90
11122;DHT22;5615;49.304;10.576;2023-07-24T09:24:36;25.90;99.90
11122;DHT22;5615;49.304;10.576;2023-07-24T09:27:05;26.00;99.90
11122;DHT22;5615;49.304;10.576;2023-07-24T09:29:33;24.90;99.90
11122;DHT22;5615;49.304;10.576;2023-07-24T09:32:00;25.60;99.90
11122;DHT22;5615;49.304;10.576;2023-07-24T09:34:27;25.40;99.90
11122;DHT22;5615;49.304;10.576;2023-07-24T09:36:53;25.40;99.90
11122;DHT22;5615;49.304;10.576;2023-07-24T09:39:23;24.70;99.90
11122;DHT22;5615;49.304;10.576;2023-07-24T09:41:51;24.30;99.90
11122;DHT22;5615;49.304;10.576;2023-07-24T09:44:18;24.40;99.90
11122;DHT22;5615;49.304;10.576;2023-07-24T09:46:46;24.10;99.90
11122;DHT22;5615;49.304;10.576;2023-07-24T09:49:12;24.00;99.90
11122;DHT22;5615;49.304;10.576;2023-07-24T09:51:40;23.90;99.90
11122;DHT22;5615;49.304;10.576;2023-07-24T09:54:15;23.70;99.90
11122;DHT22;5615;49.304;10.576;2023-07-24T09:56:42;23.70;99.90
11122;DHT22;5615;49.304;10.576;2023-07-24T09:59:10;23.50;99.90
11122;DHT22;5615;49.304;10.576;2023-07-24T10:01:39;23.70;99.90
11122;DHT22;5615;49.304;10.576;2023-07-24T10:04:07;23.70;99.90
11122;DHT22;5615;49.304;10.576;2023-07-24T10:06:34;23.50;99.90
11122;DHT22;5615;49.304;10.576;2023-07-24T10:09:01;23.10;99.90
11122;DHT22;5615;49.304;10.576;2023-07-24T10:11:29;22.80;99.90
11122;DHT22;5615;49.304;10.576;2023-07-24T10:13:55;22.60;99.90
11122;DHT22;5615;49.304;10.576;2023-07-24T10:16:24;22.30;99.90
11122;DHT22;5615;49.304;10.576;2023-07-24T10:18:50;22.30;99.90
11122;DHT22;5615;49.304;10.576;2023-07-24T10:21:17;22.40;99.90
11122;DHT22;5615;49.304;10.576;2023-07-24T10:23:45;22.40;99.90
11122;DHT22;5615;49.304;10.576;2023-07-24T10:26:12;22.50;99.90
11122;DHT22;5615;49.304;10.576;2023-07-24T10:28:40;22.60;99.90
11122;DHT22;5615;49.304;10.576;2023-07-24T10:31:18;22.70;99.90
11122;DHT22;5615;49.304;10.576;2023-07-24T10:33:46;22.70;99.90
11122;DHT22;5615;49.304;10.576;2023-07-24T10:36:16;22.60;99.90
11122;DHT22;5615;49.304;10.576;2023-07-24T10:38:46;22.60;99.90
11122;DHT22;5615;49.304;10.576;2023-07-24T10:41:13;22.50;99.90
11122;DHT22;5615;49.304;10.576;2023-07-24T10:43:41;22.60;99.90
11122;DHT22;5615;49.304;10.576;2023-07-24T10:46:08;22.60;99.90
11122;DHT22;5615;49.304;10.576;2023-07-24T10:48:35;22.40;99.90
11122;DHT22;5615;49.304;10.576;2023-07-24T10:51:07;22.40;99.90
11122;DHT22;5615;49.304;10.576;2023-07-24T10:53:36;22.40;99.90
11122;DHT22;5615;49.304;10.576;2023-07-24T10:56:03;22.50;99.90
11122;DHT22;5615;49.304;10.576;2023-07-24T10:58:30;22.60;99.90
11122;DHT22;5615;49.304;10.576;2023-07-24T11:00:58;22.70;99.90
11122;DHT22;5615;49.304;10.576;2023-07-24T11:03:25;22.70;99.90
11122;DHT22;5615;49.304;10.576;2023-07-24T11:05:52;22.60;99.90
11122;DHT22;5615;49.304;10.576;2023-07-24T11:08:20;22.70;99.90
11122;DHT22;5615;49.304;10.576;2023-07-24T11:10:48;22.70;99.90
11122;DHT22;5615;49.304;10.576;2023-07-24T11:13:15;22.80;99.90
11122;DHT22;5615;49.304;10.576;2023-07-24T11:15:41;23.00;99.90
11122;DHT22;5615;49.304;10.576;2023-07-24T11:18:08;23.00;99.90
11122;DHT22;5615;49.304;10.576;2023-07-24T11:20:38;23.10;99.90
11122;DHT22;5615;49.304;10.576;2023-07-24T11:23:05;23.30;99.90
11122;DHT22;5615;49.304;10.576;2023-07-24T11:25:33;23.20;99.90
11122;DHT22;5615;49.304;10.576;2023-07-24T11:28:00;23.00;99.90
11122;DHT22;5615;49.304;10.576;2023-07-24T11:30:26;22.90;99.90
11122;DHT22;5615;49.304;10.576;2023-07-24T11:32:53;22.80;99.90
11122;DHT22;5615;49.304;10.576;2023-07-24T11:35:21;22.70;99.90
11122;DHT22;5615;49.304;10.576;2023-07-24T11:37:48;22.40;99.90
11122;DHT22;5615;49.304;10.576;2023-07-24T11:40:14;22.40;99.90
11122;DHT22;5615;49.304;10.576;2023-07-24T11:42:43;22.20;99.90
11122;DHT22;5615;49.304;10.576;2023-07-24T11:45:10;22.20;99.90
11122;DHT22;5615;49.304;10.576;2023-07-24T11:47:44;22.30;99.90
11122;DHT22;5615;49.304;10.576;2023-07-24T11:50:11;22.30;99.90
11122;DHT22;5615;49.304;10.576;2023-07-24T11:52:39;22.10;99.90
11122;DHT22;5615;49.304;10.576;2023-07-24T11:55:07;21.90;99.90
11122;DHT22;5615;49.304;10.576;2023-07-24T11:57:34;21.80;99.90
11122;DHT22;5615;49.304;10.576;2023-07-24T12:00:02;21.90;99.90
11122;DHT22;5615;49.304;10.576;2023-07-24T12:02:29;21.90;99.90
11122;DHT22;5615;49.304;10.576;2023-07-24T12:04:58;22.00;99.90
11122;DHT22;5615;49.304;10.576;2023-07-24T12:07:30;22.10;99.90
11122;DHT22;5615;49.304;10.576;2023-07-24T12:09:57;22.20;99.90
11122;DHT22;5615;49.304;10.576;2023-07-24T12:12:24;22.20;99.90
11122;DHT22;5615;49.304;10.576;2023-07-24T12:14:52;22.20;99.90
11122;DHT22;5615;49.304;10.576;2023-07-24T12:17:19;22.10;99.90
11122;DHT22;5615;49.304;10.576;2023-07-24T12:19:46;22.00;99.90
11122;DHT22;5615;49.304;10.576;2023-07-24T12:22:13;22.10;99.90
11122;DHT22;5615;49.304;10.576;2023-07-24T12:24:40;22.10;99.90
11122;DHT22;5615;49.304;10.576;2023-07-24T12:27:07;21.80;99.90
11122;DHT22;5615;49.304;10.576;2023-07-24T12:29:36;21.50;99.90
11122;DHT22;5615;49.304;10.576;2023-07-24T12:32:03;21.40;99.90
11122;DHT22;5615;49.304;10.576;2023-07-24T12:34:31;21.20;99.90
11122;DHT22;5615;49.304;10.576;2023-07-24T12:36:58;21.20;99.90
11122;DHT22;5615;49.304;10.576;2023-07-24T12:39:24;21.40;99.90
11122;DHT22;5615;49.304;10.576;2023-07-24T12:41:51;21.60;99.90
11122;DHT22;5615;49.304;10.576;2023-07-24T12:44:18;21.80;99.90
11122;DHT22;5615;49.304;10.576;2023-07-24T12:46:44;21.70;99.90
11122;DHT22;5615;49.304;10.576;2023-07-24T12:49:11;22.00;99.90
11122;DHT22;5615;49.304;10.576;2023-07-24T12:51:39;22.10;99.90
11122;DHT22;5615;49.304;10.576;2023-07-24T12:54:05;22.30;99.90
11122;DHT22;5615;49.304;10.576;2023-07-24T12:56:32;22.70;99.90
11122;DHT22;5615;49.304;10.576;2023-07-24T12:58:59;24.00;99.90
11122;DHT22;5615;49.304;10.576;2023-07-24T13:01:25;24.20;99.90
11122;DHT22;5615;49.304;10.576;2023-07-24T13:03:54;25.80;99.90
11122;DHT22;5615;49.304;10.576;2023-07-24T13:06:20;25.10;99.90
11122;DHT22;5615;49.304;10.576;2023-07-24T13:08:49;24.20;99.90
11122;DHT22;5615;49.304;10.576;2023-07-24T13:11:15;24.00;99.90
11122;DHT22;5615;49.304;10.576;2023-07-24T13:13:42;23.10;99.90
11122;DHT22;5615;49.304;10.576;2023-07-24T13:16:09;22.70;99.90
11122;DHT22;5615;49.304;10.576;2023-07-24T13:18:36;22.40;99.90
11122;DHT22;5615;49.304;10.576;2023-07-24T13:21:02;22.20;99.90
11122;DHT22;5615;49.304;10.576;2023-07-24T13:23:31;22.20;99.90
11122;DHT22;5615;49.304;10.576;2023-07-24T13:25:59;22.10;99.90
11122;DHT22;5615;49.304;10.576;2023-07-24T13:28:26;21.90;99.90
11122;DHT22;5615;49.304;10.576;2023-07-24T13:30:53;22.10;99.90
11122;DHT22;5615;49.304;10.576;2023-07-24T13:33:19;22.20;99.90
11122;DHT22;5615;49.304;10.576;2023-07-24T13:35:47;22.00;99.90
11122;DHT22;5615;49.304;10.576;2023-07-24T13:38:16;21.90;99.90
11122;DHT22;5615;49.304;10.576;2023-07-24T13:40:42;21.60;99.90
11122;DHT22;5615;49.304;10.576;2023-07-24T13:43:10;21.20;99.90
11122;DHT22;5615;49.304;10.576;2023-07-24T13:45:37;21.10;99.90
11122;DHT22;5615;49.304;10.576;2023-07-24T13:48:04;21.10;99.90
11122;DHT22;5615;49.304;10.576;2023-07-24T13:50:31;21.10;99.90
11122;DHT22;5615;49.304;10.576;2023-07-24T13:52:57;21.20;99.90
11122;DHT22;5615;49.304;10.576;2023-07-24T13:55:24;21.40;99.90
11122;DHT22;5615;49.304;10.576;2023-07-24T13:57:51;21.50;99.90
11122;DHT22;5615;49.304;10.576;2023-07-24T14:00:19;21.40;99.90
11122;DHT22;5615;49.304;10.576;2023-07-24T14:02:45;21.40;99.90
11122;DHT22;5615;49.304;10.576;2023-07-24T14:05:12;21.40;99.90
11122;DHT22;5615;49.304;10.576;2023-07-24T14:07:39;21.40;99.90
11122;DHT22;5615;49.304;10.576;2023-07-24T14:10:06;21.60;99.90
11122;DHT22;5615;49.304;10.576;2023-07-24T14:12:33;21.60;99.90
11122;DHT22;5615;49.304;10.576;2023-07-24T14:14:59;21.70;99.90
11122;DHT22;5615;49.304;10.576;2023-07-24T14:17:27;21.80;99.90
11122;DHT22;5615;49.304;10.576;2023-07-24T14:19:54;21.90;99.90
11122;DHT22;5615;49.304;10.576;2023-07-24T14:22:21;22.10;99.90
11122;DHT22;5615;49.304;10.576;2023-07-24T14:24:48;22.00;99.90
11122;DHT22;5615;49.304;10.576;2023-07-24T14:27:14;21.90;99.90
11122;DHT22;5615;49.304;10.576;2023-07-24T14:29:41;22.00;99.90
11122;DHT22;5615;49.304;10.576;2023-07-24T14:32:08;22.20;99.90
11122;DHT22;5615;49.304;10.576;2023-07-24T14:34:36;22.30;99.90
11122;DHT22;5615;49.304;10.576;2023-07-24T14:37:03;22.30;99.90
11122;DHT22;5615;49.304;10.576;2023-07-24T14:39:29;22.40;99.90
11122;DHT22;5615;49.304;10.576;2023-07-24T14:41:56;22.30;99.90
11122;DHT22;5615;49.304;10.576;2023-07-24T14:44:23;22.60;99.90
11122;DHT22;5615;49.304;10.576;2023-07-24T14:46:49;22.60;99.90
11122;DHT22;5615;49.304;10.576;2023-07-24T14:49:16;22.30;99.90
11122;DHT22;5615;49.304;10.576;2023-07-24T14:51:44;21.90;99.90
11122;DHT22;5615;49.304;10.576;2023-07-24T14:54:10;21.70;99.90
11122;DHT22;5615;49.304;10.576;2023-07-24T14:56:37;21.70;99.90
11122;DHT22;5615;49.304;10.576;2023-07-24T14:59:04;21.70;99.90
11122;DHT22;5615;49.304;10.576;2023-07-24T15:01:30;21.80;99.90
11122;DHT22;5615;49.304;10.576;2023-07-24T15:03:57;21.90;99.90
11122;DHT22;5615;49.304;10.576;2023-07-24T15:06:23;21.90;99.90
11122;DHT22;5615;49.304;10.576;2023-07-24T15:08:51;21.70;99.90
11122;DHT22;5615;49.304;10.576;2023-07-24T15:11:21;21.50;99.90
11122;DHT22;5615;49.304;10.576;2023-07-24T15:13:48;21.50;99.90
11122;DHT22;5615;49.304;10.576;2023-07-24T15:16:15;21.50;99.90
11122;DHT22;5615;49.304;10.576;2023-07-24T15:18:41;21.50;99.90
11122;DHT22;5615;49.304;10.576;2023-07-24T15:21:08;21.60;99.90
11122;DHT22;5615;49.304;10.576;2023-07-24T15:23:34;21.80;99.90
11122;DHT22;5615;49.304;10.576;2023-07-24T15:26:02;21.80;99.90
11122;DHT22;5615;49.304;10.576;2023-07-24T15:28:29;22.30;99.90
11122;DHT22;5615;49.304;10.576;2023-07-24T15:30:56;22.50;99.90